createdAt,value
2019-03-05T00:01:01.782Z,0.70
2019-03-05T00:03:30.331Z,0.73
2019-03-05T00:05:58.914Z,1.00
2019-03-05T00:08:27.432Z,1.00
2019-03-05T00:10:56.354Z,1.07
2019-03-05T00:13:24.816Z,0.80
2019-03-05T00:15:54.090Z,0.90
2019-03-05T00:18:22.738Z,1.17
2019-03-05T00:20:51.249Z,0.70
2019-03-05T00:23:48.318Z,0.90
2019-03-05T00:26:19.502Z,1.10
2019-03-05T00:28:53.890Z,1.10
2019-03-05T00:31:28.203Z,0.80
2019-03-05T00:34:02.608Z,0.93
2019-03-05T00:36:36.693Z,0.90
2019-03-05T00:39:26.397Z,1.00
2019-03-05T00:42:25.947Z,1.10
2019-03-05T00:45:15.586Z,0.70
2019-03-05T00:47:52.788Z,0.83
2019-03-05T00:50:46.402Z,0.67
2019-03-05T00:53:39.236Z,1.13
2019-03-05T00:56:10.801Z,0.83
2019-03-05T00:59:03.286Z,1.00
2019-03-05T01:01:37.698Z,1.10
2019-03-05T01:04:14.754Z,1.07
2019-03-05T01:06:43.589Z,1.07
2019-03-05T01:09:16.041Z,1.10
2019-03-05T01:11:44.671Z,1.20
2019-03-05T01:14:13.522Z,1.07
2019-03-05T01:16:42.175Z,0.70
2019-03-05T01:19:10.614Z,1.00
2019-03-05T01:21:39.273Z,1.10
2019-03-05T01:24:07.786Z,1.13
2019-03-05T01:26:36.239Z,0.97
2019-03-05T01:29:05.083Z,0.90
2019-03-05T01:31:35.234Z,1.00
2019-03-05T01:34:14.636Z,0.97
2019-03-05T01:36:56.866Z,0.97
2019-03-05T01:39:36.099Z,1.00
2019-03-05T01:42:05.947Z,1.10
2019-03-05T01:44:34.391Z,1.00
2019-03-05T01:47:03.039Z,1.20
2019-03-05T01:49:31.624Z,1.27
2019-03-05T01:52:00.070Z,1.10
2019-03-05T01:54:28.621Z,1.10
2019-03-05T01:56:57.063Z,1.10
2019-03-05T01:59:25.510Z,1.13
2019-03-05T02:01:54.118Z,1.20
2019-03-05T02:04:22.637Z,1.30
2019-03-05T02:06:51.146Z,1.20
2019-03-05T02:09:19.890Z,1.20
2019-03-05T02:11:48.332Z,1.10
2019-03-05T02:14:16.844Z,1.20
2019-03-05T02:16:45.478Z,0.80
2019-03-05T02:19:35.316Z,1.20
2019-03-05T02:22:04.985Z,1.13
2019-03-05T02:24:54.506Z,1.03
2019-03-05T02:27:42.814Z,1.23
2019-03-05T02:30:44.679Z,1.40
2019-03-05T02:33:45.170Z,1.23
2019-03-05T02:36:39.580Z,1.20
2019-03-05T02:39:35.623Z,1.00
2019-03-05T02:42:10.030Z,0.90
2019-03-05T02:44:50.640Z,1.00
2019-03-05T02:47:55.732Z,1.20
2019-03-05T02:50:48.059Z,1.50
2019-03-05T02:53:31.445Z,1.03
2019-03-05T02:56:18.239Z,1.07
2019-03-05T02:58:45.736Z,1.33
2019-03-05T03:01:32.568Z,0.87
2019-03-05T03:04:11.713Z,1.30
2019-03-05T03:06:40.425Z,1.23
2019-03-05T03:09:30.043Z,1.67
2019-03-05T03:11:59.036Z,1.00
2019-03-05T03:14:27.669Z,1.17
2019-03-05T03:16:56.303Z,1.20
2019-03-05T03:19:25.419Z,1.40
2019-03-05T03:21:54.120Z,1.03
2019-03-05T03:24:22.692Z,1.00
2019-03-05T03:26:51.287Z,1.63
2019-03-05T03:29:19.914Z,1.13
2019-03-05T03:31:49.592Z,1.20
2019-03-05T03:34:18.229Z,1.50
2019-03-05T03:36:46.786Z,1.70
2019-03-05T03:39:15.478Z,0.90
2019-03-05T03:41:44.063Z,1.30
2019-03-05T03:44:12.776Z,1.10
2019-03-05T03:46:41.411Z,1.20
2019-03-05T03:49:10.257Z,1.03
2019-03-05T03:51:38.892Z,1.10
2019-03-05T03:54:07.445Z,1.37
2019-03-05T03:56:36.112Z,1.17
2019-03-05T03:59:04.916Z,1.00
2019-03-05T04:01:33.609Z,1.47
2019-03-05T04:04:02.445Z,1.90
2019-03-05T04:06:31.071Z,1.00
2019-03-05T04:08:59.700Z,1.20
2019-03-05T04:11:28.413Z,1.30
2019-03-05T04:13:59.491Z,1.20
2019-03-05T04:16:27.248Z,1.40
2019-03-05T04:18:56.352Z,1.57
2019-03-05T04:21:24.991Z,1.30
2019-03-05T04:23:53.581Z,1.17
2019-03-05T04:26:22.170Z,1.00
2019-03-05T04:28:50.727Z,1.20
2019-03-05T04:31:19.283Z,1.50
2019-03-05T04:33:47.899Z,1.17
2019-03-05T04:36:16.603Z,1.43
2019-03-05T04:38:45.162Z,1.47
2019-03-05T04:41:13.775Z,1.33
2019-03-05T04:43:42.326Z,1.43
2019-03-05T04:46:28.667Z,1.40
2019-03-05T04:49:15.533Z,1.60
2019-03-05T04:51:48.761Z,1.50
2019-03-05T04:54:17.323Z,1.23
2019-03-05T04:56:45.963Z,1.20
2019-03-05T04:59:14.630Z,1.30
2019-03-05T05:01:43.270Z,1.30
2019-03-05T05:04:11.904Z,1.30
2019-03-05T05:06:40.631Z,1.30
2019-03-05T05:09:09.265Z,1.23
2019-03-05T05:11:37.927Z,1.43
2019-03-05T05:14:06.491Z,1.43
2019-03-05T05:16:35.126Z,1.23
2019-03-05T05:19:03.783Z,1.13
2019-03-05T05:21:32.443Z,1.30
2019-03-05T05:24:01.622Z,1.13
2019-03-05T05:26:30.330Z,1.50
2019-03-05T05:28:58.954Z,1.27
2019-03-05T05:31:27.549Z,1.33
2019-03-05T05:33:56.109Z,0.90
2019-03-05T05:36:24.708Z,1.50
2019-03-05T05:38:53.266Z,1.33
2019-03-05T05:41:21.895Z,1.43
2019-03-05T05:43:50.503Z,1.20
2019-03-05T05:46:19.130Z,1.30
2019-03-05T05:49:07.279Z,1.13
2019-03-05T05:51:35.851Z,1.20
2019-03-05T05:54:04.547Z,1.20
2019-03-05T05:56:33.134Z,1.07
2019-03-05T05:59:01.695Z,1.00
2019-03-05T06:01:30.290Z,1.30
2019-03-05T06:03:58.854Z,1.10
2019-03-05T06:06:27.415Z,1.07
2019-03-05T06:08:56.097Z,1.23
2019-03-05T06:11:24.657Z,1.00
2019-03-05T06:13:53.355Z,1.00
2019-03-05T06:16:21.995Z,1.03
2019-03-05T06:18:50.554Z,0.90
2019-03-05T06:21:19.147Z,0.97
2019-03-05T06:23:47.858Z,1.10
2019-03-05T06:26:16.447Z,1.17
2019-03-05T06:28:45.107Z,1.40
2019-03-05T06:31:13.823Z,1.10
2019-03-05T06:33:42.491Z,1.20
2019-03-05T06:36:11.072Z,1.30
2019-03-05T06:38:39.667Z,1.50
2019-03-05T06:41:08.375Z,1.23
2019-03-05T06:43:36.933Z,1.20
2019-03-05T06:46:05.567Z,1.03
2019-03-05T06:48:34.099Z,1.67
2019-03-05T06:51:02.766Z,1.30
2019-03-05T06:53:31.391Z,1.50
2019-03-05T06:55:59.946Z,1.17
2019-03-05T06:58:28.619Z,1.17
2019-03-05T07:00:57.171Z,0.87
2019-03-05T07:03:25.762Z,1.10
2019-03-05T07:06:59.413Z,1.10
2019-03-05T07:09:56.069Z,1.10
2019-03-05T07:12:55.487Z,0.90
2019-03-05T07:16:17.546Z,1.00
2019-03-05T07:19:18.503Z,0.70
2019-03-05T07:22:39.266Z,1.07
2019-03-05T07:25:40.284Z,0.70
2019-03-05T07:28:47.284Z,0.93
2019-03-05T07:31:52.960Z,0.80
2019-03-05T07:34:59.166Z,1.00
2019-03-05T07:38:13.214Z,1.00
2019-03-05T07:41:21.650Z,1.00
2019-03-05T07:44:35.402Z,1.10
2019-03-05T07:50:58.585Z,1.00
2019-03-05T07:56:37.036Z,1.40
2019-03-05T07:59:05.880Z,1.57
2019-03-05T08:01:34.418Z,1.10
2019-03-05T08:04:03.336Z,0.90
2019-03-05T08:06:31.893Z,1.10
2019-03-05T08:09:26.039Z,0.90
2019-03-05T08:11:57.735Z,1.13
2019-03-05T08:14:32.278Z,0.97
2019-03-05T08:17:00.902Z,1.07
2019-03-05T08:19:29.464Z,1.10
2019-03-05T08:21:58.190Z,1.07
2019-03-05T08:24:26.747Z,1.00
2019-03-05T08:26:55.295Z,1.17
2019-03-05T08:29:24.081Z,1.00
2019-03-05T08:31:52.781Z,1.17
2019-03-05T08:34:21.337Z,1.07
2019-03-05T08:36:49.934Z,1.03
2019-03-05T08:39:18.553Z,0.87
2019-03-05T08:41:47.117Z,1.00
2019-03-05T08:44:15.705Z,1.00
2019-03-05T08:46:44.271Z,1.00
2019-03-05T08:49:12.836Z,1.13
2019-03-05T08:51:41.659Z,1.10
2019-03-05T08:54:10.282Z,1.17
2019-03-05T08:56:38.919Z,0.70
2019-03-05T08:59:07.932Z,0.73
2019-03-05T09:01:36.485Z,0.97
2019-03-05T09:04:05.114Z,0.90
2019-03-05T09:06:33.765Z,1.00
2019-03-05T09:09:02.418Z,0.50
2019-03-05T09:11:30.974Z,1.47
2019-03-05T09:13:59.822Z,0.80
2019-03-05T09:16:28.385Z,0.90
2019-03-05T09:18:57.005Z,0.83
2019-03-05T09:21:25.855Z,1.20
2019-03-05T09:23:54.405Z,1.30
2019-03-05T09:26:23.029Z,1.00
2019-03-05T09:28:51.694Z,0.90
2019-03-05T09:31:20.313Z,0.90
2019-03-05T09:33:48.938Z,1.00
2019-03-05T09:36:17.540Z,1.00
2019-03-05T09:38:46.089Z,1.20
2019-03-05T09:41:14.786Z,1.20
2019-03-05T09:43:43.433Z,1.23
2019-03-05T09:46:12.058Z,1.60
2019-03-05T09:48:40.605Z,1.20
2019-03-05T09:51:09.270Z,0.87
2019-03-05T09:53:37.898Z,0.80
2019-03-05T09:56:06.688Z,1.00
2019-03-05T09:58:35.419Z,1.10
2019-03-05T10:01:04.814Z,0.87
2019-03-05T10:03:33.370Z,0.93
2019-03-05T10:06:02.174Z,1.20
2019-03-05T10:08:32.656Z,0.90
2019-03-05T10:11:01.142Z,0.80
2019-03-05T10:13:30.170Z,0.80
2019-03-05T10:15:58.866Z,1.13
2019-03-05T10:18:27.493Z,1.07
2019-03-05T10:20:56.146Z,1.00
2019-03-05T10:23:24.770Z,0.90
2019-03-05T10:25:53.871Z,0.80
2019-03-05T10:28:22.783Z,0.83
2019-03-05T10:30:51.417Z,1.10
2019-03-05T10:33:20.741Z,1.13
2019-03-05T10:35:49.818Z,1.03
2019-03-05T10:38:18.609Z,1.10
2019-03-05T10:40:53.129Z,0.90
2019-03-05T10:43:21.859Z,0.90
2019-03-05T10:45:50.847Z,1.00
2019-03-05T10:48:22.682Z,0.97
2019-03-05T10:50:51.430Z,0.67
2019-03-05T10:53:20.392Z,0.90
2019-03-05T10:55:49.085Z,0.87
2019-03-05T10:58:19.046Z,0.90
2019-03-05T11:00:50.006Z,1.00
2019-03-05T11:03:21.065Z,1.00
2019-03-05T11:05:49.990Z,0.80
2019-03-05T11:08:21.187Z,1.20
2019-03-05T11:10:50.094Z,0.80
2019-03-05T11:13:19.314Z,0.70
2019-03-05T11:15:53.238Z,0.80
2019-03-05T11:18:29.518Z,0.97
2019-03-05T11:20:52.402Z,0.70
2019-03-05T11:23:21.026Z,1.00
2019-03-05T11:25:49.819Z,0.87
2019-03-05T11:28:18.549Z,1.07
2019-03-05T11:30:47.250Z,0.97
2019-03-05T11:33:15.941Z,1.10
2019-03-05T11:35:44.682Z,1.30
2019-03-05T11:38:13.309Z,0.80
2019-03-05T11:40:42.275Z,1.00
2019-03-05T11:43:13.520Z,0.80
2019-03-05T11:45:43.214Z,1.10
2019-03-05T11:48:12.302Z,1.00
2019-03-05T11:50:41.036Z,1.20
2019-03-05T11:53:09.729Z,1.20
2019-03-05T11:55:38.422Z,0.90
2019-03-05T11:58:07.155Z,1.10
2019-03-05T12:00:53.820Z,1.30
2019-03-05T12:03:22.618Z,1.13
2019-03-05T12:05:51.313Z,1.10
2019-03-05T12:08:20.057Z,0.80
2019-03-05T12:10:48.769Z,1.20
2019-03-05T12:13:17.465Z,1.40
2019-03-05T12:15:46.421Z,0.80
2019-03-05T12:18:15.518Z,1.10
2019-03-05T12:20:44.350Z,0.80
2019-03-05T12:23:13.049Z,0.70
2019-03-05T12:25:41.926Z,0.90
2019-03-05T12:28:11.376Z,0.80
2019-03-05T12:30:40.480Z,0.60
2019-03-05T12:33:09.646Z,0.90
2019-03-05T12:35:38.273Z,0.90
2019-03-05T12:38:07.065Z,0.87
2019-03-05T12:40:35.724Z,0.80
2019-03-05T12:43:04.414Z,0.90
2019-03-05T12:45:33.105Z,0.80
2019-03-05T12:48:02.263Z,1.13
2019-03-05T12:50:32.067Z,0.90
2019-03-05T12:53:08.739Z,1.13
2019-03-05T12:55:37.582Z,1.13
2019-03-05T12:58:06.271Z,1.10
2019-03-05T13:00:35.970Z,1.20
2019-03-05T13:03:05.117Z,0.60
2019-03-05T13:05:33.815Z,0.90
2019-03-05T13:08:02.618Z,1.17
2019-03-05T13:10:36.105Z,0.80
2019-03-05T13:13:03.946Z,0.80
2019-03-05T13:15:36.989Z,0.90
2019-03-05T13:18:05.913Z,1.27
2019-03-05T13:20:34.546Z,1.53
2019-03-05T13:23:08.710Z,1.10
2019-03-05T13:25:33.962Z,0.93
2019-03-05T13:28:04.197Z,0.87
2019-03-05T13:30:33.342Z,0.90
2019-03-05T13:33:02.178Z,0.80
2019-03-05T13:35:32.222Z,0.90
2019-03-05T13:38:09.594Z,1.27
2019-03-05T13:40:40.511Z,1.00
2019-03-05T13:43:08.789Z,1.10
2019-03-05T13:45:37.705Z,0.90
2019-03-05T13:48:09.417Z,1.37
2019-03-05T13:50:56.604Z,1.10
2019-03-05T13:54:01.040Z,1.37
2019-03-05T13:56:51.690Z,0.93
2019-03-05T13:59:39.957Z,1.00
2019-03-05T14:02:09.586Z,1.13
2019-03-05T14:04:53.291Z,1.00
2019-03-05T14:07:46.249Z,1.13
2019-03-05T14:10:15.175Z,1.33
2019-03-05T14:12:43.726Z,1.20
2019-03-05T14:15:12.877Z,1.50
2019-03-05T14:17:42.418Z,1.30
2019-03-05T14:20:14.408Z,1.17
2019-03-05T14:22:43.262Z,1.10
2019-03-05T14:25:15.009Z,1.03
2019-03-05T14:27:43.829Z,1.30
2019-03-05T14:30:20.648Z,1.30
2019-03-05T14:32:48.274Z,0.93
2019-03-05T14:35:17.994Z,1.10
2019-03-05T14:37:46.943Z,1.20
2019-03-05T14:40:24.224Z,1.00
2019-03-05T14:42:49.133Z,1.53
2019-03-05T14:45:24.184Z,1.20
2019-03-05T14:47:54.270Z,2.10
2019-03-05T14:50:22.944Z,1.50
2019-03-05T14:52:51.805Z,1.50
2019-03-05T14:55:20.496Z,1.30
2019-03-05T14:57:49.200Z,1.53
2019-03-05T15:00:20.137Z,1.40
2019-03-05T15:02:48.834Z,1.90
2019-03-05T15:05:17.456Z,1.60
2019-03-05T15:07:46.112Z,1.87
2019-03-05T15:10:14.755Z,1.77
2019-03-05T15:12:43.394Z,1.70
2019-03-05T15:15:15.026Z,1.67
2019-03-05T15:17:43.702Z,1.53
2019-03-05T15:20:12.286Z,1.60
2019-03-05T15:22:40.949Z,1.43
2019-03-05T15:25:14.455Z,1.30
2019-03-05T15:27:43.184Z,1.10
2019-03-05T15:30:16.659Z,1.13
2019-03-05T15:32:45.207Z,1.50
2019-03-05T15:35:14.094Z,1.10
2019-03-05T15:37:42.705Z,1.10
2019-03-05T15:40:13.616Z,1.30
2019-03-05T15:42:42.291Z,1.30
2019-03-05T15:45:19.378Z,1.17
2019-03-05T15:47:47.948Z,1.67
2019-03-05T15:50:26.944Z,2.07
2019-03-05T15:52:55.639Z,1.63
2019-03-05T15:55:25.014Z,2.00
2019-03-05T15:57:54.054Z,1.40
2019-03-05T16:00:26.381Z,1.30
2019-03-05T16:02:55.079Z,1.60
2019-03-05T16:05:23.829Z,1.50
2019-03-05T16:07:52.383Z,1.40
2019-03-05T16:10:21.074Z,2.27
2019-03-05T16:12:49.747Z,1.90
2019-03-05T16:15:18.886Z,2.20
2019-03-05T16:17:47.574Z,1.60
2019-03-05T16:20:19.897Z,1.70
2019-03-05T16:22:51.196Z,1.70
2019-03-05T16:25:22.118Z,2.57
2019-03-05T16:27:50.938Z,1.63
2019-03-05T16:30:44.745Z,1.87
2019-03-05T16:33:32.573Z,2.10
2019-03-05T16:36:19.578Z,1.83
2019-03-05T16:38:56.080Z,2.57
2019-03-05T16:41:26.355Z,2.23
2019-03-05T16:44:02.714Z,2.20
2019-03-05T16:46:38.579Z,2.90
2019-03-05T16:49:25.072Z,2.13
2019-03-05T16:51:55.366Z,2.40
2019-03-05T16:54:31.570Z,2.50
2019-03-05T16:57:17.274Z,2.47
2019-03-05T17:00:05.970Z,2.63
2019-03-05T17:02:53.978Z,2.60
2019-03-05T17:05:28.647Z,3.23
2019-03-05T17:07:58.915Z,3.10
2019-03-05T17:10:32.193Z,2.70
2019-03-05T17:13:01.090Z,2.77
2019-03-05T17:15:29.650Z,3.20
2019-03-05T17:17:58.202Z,3.13
2019-03-05T17:20:26.870Z,3.27
2019-03-05T17:22:55.561Z,3.33
2019-03-05T17:25:24.477Z,3.50
2019-03-05T17:27:53.137Z,3.53
2019-03-05T17:30:21.934Z,3.53
2019-03-05T17:32:50.580Z,3.60
2019-03-05T17:35:19.572Z,3.50
2019-03-05T17:37:48.474Z,2.73
2019-03-05T17:40:17.365Z,3.00
2019-03-05T17:42:46.030Z,3.03
2019-03-05T17:45:20.556Z,3.70
2019-03-05T17:47:49.247Z,3.83
2019-03-05T17:50:17.982Z,3.97
2019-03-05T17:52:46.599Z,3.80
2019-03-05T17:55:24.187Z,3.53
2019-03-05T17:57:50.998Z,3.30
2019-03-05T18:00:29.108Z,2.80
2019-03-05T18:02:58.365Z,3.53
2019-03-05T18:05:27.093Z,3.83
2019-03-05T18:07:55.717Z,3.70
2019-03-05T18:10:24.958Z,4.23
2019-03-05T18:12:53.511Z,4.07
2019-03-05T18:15:22.207Z,4.43
2019-03-05T18:17:51.057Z,3.50
2019-03-05T18:20:21.522Z,3.93
2019-03-05T18:22:50.355Z,3.83
2019-03-05T18:25:19.597Z,3.53
2019-03-05T18:27:48.442Z,3.50
2019-03-05T18:30:30.610Z,3.70
2019-03-05T18:32:59.442Z,3.90
2019-03-05T18:35:28.059Z,3.60
2019-03-05T18:37:56.718Z,4.10
2019-03-05T18:40:25.615Z,4.20
2019-03-05T18:42:54.237Z,4.53
2019-03-05T18:45:34.797Z,4.60
2019-03-05T18:48:03.599Z,4.00
2019-03-05T18:50:32.393Z,4.63
2019-03-05T18:53:02.549Z,4.80
2019-03-05T18:55:31.462Z,4.53
2019-03-05T18:58:00.158Z,3.90
2019-03-05T19:00:31.633Z,4.10
2019-03-05T19:03:11.130Z,4.70
2019-03-05T19:05:40.057Z,3.90
2019-03-05T19:08:08.854Z,3.60
2019-03-05T19:10:37.582Z,4.60
2019-03-05T19:13:06.579Z,4.70
2019-03-05T19:15:35.583Z,5.77
2019-03-05T19:18:05.774Z,4.70
2019-03-05T19:20:34.503Z,4.40
2019-03-05T19:23:03.202Z,3.50
2019-03-05T19:25:39.910Z,4.00
2019-03-05T19:28:08.915Z,4.33
2019-03-05T19:30:52.958Z,3.80
2019-03-05T19:33:21.592Z,3.33
2019-03-05T19:35:50.283Z,3.17
2019-03-05T19:38:19.241Z,2.43
2019-03-05T19:40:48.541Z,2.53
2019-03-05T19:43:17.115Z,2.23
2019-03-05T19:45:45.983Z,1.93
2019-03-05T19:48:14.542Z,2.00
2019-03-05T19:50:43.466Z,2.23
2019-03-05T19:53:12.594Z,1.57
2019-03-05T19:55:41.794Z,2.00
2019-03-05T19:58:12.065Z,1.60
2019-03-05T20:00:53.265Z,1.50
2019-03-05T20:03:21.895Z,1.63
2019-03-05T20:05:50.593Z,1.63
2019-03-05T20:08:19.366Z,1.93
2019-03-05T20:10:48.038Z,2.20
2019-03-05T20:13:17.039Z,1.87
2019-03-05T20:15:45.946Z,1.80
2019-03-05T20:18:14.660Z,1.67
2019-03-05T20:20:43.520Z,1.60
2019-03-05T20:23:12.361Z,2.00
2019-03-05T20:25:41.356Z,2.20
2019-03-05T20:28:10.050Z,1.73
2019-03-05T20:30:38.940Z,1.93
2019-03-05T20:33:07.628Z,1.73
2019-03-05T20:35:36.286Z,1.47
2019-03-05T20:38:05.516Z,1.20
2019-03-05T20:40:34.207Z,1.47
2019-03-05T20:43:03.811Z,1.50
2019-03-05T20:45:40.681Z,1.77
2019-03-05T20:48:09.376Z,1.50
2019-03-05T20:50:38.075Z,2.03
2019-03-05T20:53:06.817Z,2.10
2019-03-05T20:55:35.510Z,2.30
2019-03-05T20:58:04.347Z,2.13
2019-03-05T21:00:35.542Z,2.70
2019-03-05T21:03:06.410Z,2.67
2019-03-05T21:05:40.773Z,2.40
2019-03-05T21:08:10.371Z,2.70
2019-03-05T21:10:39.718Z,2.70
2019-03-05T21:13:09.325Z,2.63
2019-03-05T21:15:38.663Z,3.13
2019-03-05T21:18:13.100Z,2.70
2019-03-05T21:20:41.786Z,3.00
2019-03-05T21:23:10.414Z,2.60
2019-03-05T21:25:38.993Z,2.60
2019-03-05T21:28:07.682Z,2.03
2019-03-05T21:30:36.406Z,2.00
2019-03-05T21:33:05.220Z,2.00
2019-03-05T21:35:33.777Z,1.80
2019-03-05T21:38:02.406Z,1.60
2019-03-05T21:40:32.619Z,1.80
2019-03-05T21:43:01.244Z,2.00
2019-03-05T21:45:36.041Z,1.70
2019-03-05T21:48:05.728Z,2.03
2019-03-05T21:50:34.425Z,2.23
2019-03-05T21:53:03.166Z,2.23
2019-03-05T21:55:31.848Z,2.10
2019-03-05T21:58:00.546Z,1.90
2019-03-05T22:00:40.412Z,2.20
2019-03-05T22:03:09.110Z,1.90
2019-03-05T22:05:37.734Z,1.80
2019-03-05T22:08:06.385Z,1.90
2019-03-05T22:10:35.310Z,2.00
2019-03-05T22:13:04.011Z,2.07
2019-03-05T22:15:34.045Z,1.90
2019-03-05T22:18:02.605Z,2.00
2019-03-05T22:20:31.239Z,1.50
2019-03-05T22:23:00.186Z,1.80
2019-03-05T22:25:29.324Z,2.10
2019-03-05T22:27:58.060Z,2.00
2019-03-05T22:30:29.309Z,2.37
2019-03-05T22:32:58.029Z,2.00
2019-03-05T22:35:26.817Z,2.33
2019-03-05T22:37:55.412Z,2.30
2019-03-05T22:40:26.071Z,2.30
2019-03-05T22:42:54.965Z,2.20
2019-03-05T22:45:34.424Z,2.10
2019-03-05T22:48:03.229Z,2.00
2019-03-05T22:50:31.797Z,1.80
2019-03-05T22:53:00.457Z,2.10
2019-03-05T22:55:29.154Z,2.20
2019-03-05T22:57:58.146Z,1.83
2019-03-05T23:00:54.399Z,1.70
2019-03-05T23:03:25.395Z,2.00
2019-03-05T23:05:54.285Z,1.80
2019-03-05T23:08:23.315Z,1.60
2019-03-05T23:10:52.302Z,2.23
2019-03-05T23:13:20.920Z,1.77
2019-03-05T23:15:50.157Z,1.67
2019-03-05T23:18:18.854Z,1.60
2019-03-05T23:20:47.645Z,1.50
2019-03-05T23:23:16.377Z,1.67
2019-03-05T23:25:45.097Z,1.30
2019-03-05T23:28:13.793Z,1.50
2019-03-05T23:30:42.468Z,1.33
2019-03-05T23:33:11.188Z,1.47
2019-03-05T23:35:39.813Z,1.57
2019-03-05T23:38:08.478Z,1.70
2019-03-05T23:40:37.033Z,2.10
2019-03-05T23:43:06.069Z,1.90
2019-03-05T23:45:35.766Z,2.17
2019-03-05T23:48:04.454Z,2.10
2019-03-05T23:50:33.081Z,1.70
2019-03-05T23:53:01.669Z,2.20
2019-03-05T23:55:30.494Z,1.90
2019-03-05T23:57:59.971Z,1.80
